Time;durP1;ratioP1;P1;durP2;ratioP2;P2;SDS_P1;SDS_P2;PMS_P1;PMS_P2;Temp;Humidity;BMP_temperature;BMP_pressure;BME280_temperature;BME280_humidity;BME280_pressure;Samples;Min_cycle;Max_cycle;Signal;HPM_P1;HPM_P2
2023/12/22 00:01:04;;;;;;;18.48;2.47;;;;;;;2.42;100.00;99980.03;6125865;23;20057;-85
2023/12/22 00:03:29;;;;;;;17.60;2.85;;;;;;;3.25;100.00;100117.50;6126156;23;20021;-86
2023/12/22 00:06:07;;;;;;;10.98;2.30;;;;;;;2.45;100.00;100024.03;6125337;23;20006;-86
2023/12/22 00:08:51;;;;;;;15.75;3.05;;;;;;;3.10;100.00;100107.06;6125779;23;20085;-87
2023/12/22 00:11:16;;;;;;;11.65;2.28;;;;;;;3.05;100.00;100109.00;6099401;23;20013;-86
2023/12/22 00:13:41;;;;;;;13.50;2.72;;;;;;;2.36;100.00;100001.53;6125784;23;20010;-86
2023/12/22 00:16:07;;;;;;;13.55;2.35;;;;;;;3.02;100.00;100121.03;6125436;23;20377;-87
2023/12/22 00:18:32;;;;;;;13.10;2.47;;;;;;;3.16;100.00;100162.13;6125610;23;20045;-86
2023/12/22 00:20:57;;;;;;;14.13;2.28;;;;;;;2.29;100.00;100025.59;6125627;23;20390;-86
2023/12/22 00:23:23;;;;;;;16.38;3.00;;;;;;;4.27;100.00;100346.16;6125125;23;20032;-85
2023/12/22 00:25:48;;;;;;;18.05;3.13;;;;;;;2.40;100.00;100050.63;6125890;23;20037;-87
2023/12/22 00:28:14;;;;;;;13.10;2.75;;;;;;;2.91;100.00;100128.34;6124234;23;19998;-85
2023/12/22 00:30:45;;;;;;;17.20;3.58;;;;;;;2.69;100.00;100090.19;6100144;23;20038;-88
2023/12/22 00:33:20;;;;;;;11.07;2.63;;;;;;;3.27;100.00;100154.00;6125205;23;20013;-86
2023/12/22 00:35:45;;;;;;;19.92;3.17;;;;;;;4.30;100.00;100322.19;6125355;23;20005;-83
2023/12/22 00:38:20;;;;;;;14.35;2.90;;;;;;;3.46;100.00;100167.59;6125513;23;20017;-85
2023/12/22 00:40:45;;;;;;;17.00;3.60;;;;;;;3.54;100.00;100180.00;6124791;23;20058;-85
2023/12/22 00:43:11;;;;;;;15.75;3.88;;;;;;;3.73;100.00;100224.25;6127221;23;20424;-86
2023/12/22 00:45:36;;;;;;;20.58;3.58;;;;;;;2.78;100.00;100092.34;6127258;23;20013;-86
2023/12/22 00:50:33;;;;;;;20.80;3.70;;;;;;;2.52;100.00;100034.81;6127293;23;20030;-87
2023/12/22 00:52:58;;;;;;;17.58;3.13;;;;;;;2.46;100.00;100042.69;6125679;23;20017;-86
2023/12/22 00:55:24;;;;;;;18.27;2.55;;;;;;;2.37;100.00;100004.91;6127341;23;20076;-86
2023/12/22 00:57:52;;;;;;;16.80;3.22;;;;;;;3.63;100.00;100228.94;6126812;23;20384;-86
2023/12/22 01:00:24;;;;;;;18.02;3.35;;;;;;;2.32;100.00;100028.00;6152486;23;20325;-85
2023/12/22 01:02:52;;;;;;;17.25;3.17;;;;;;;4.20;100.00;100355.00;6156858;23;20017;-88
2023/12/22 01:05:30;;;;;;;22.95;3.92;;;;;;;2.18;100.00;100027.75;6130667;23;20006;-87
2023/12/22 01:07:55;;;;;;;20.20;3.40;;;;;;;2.12;100.00;100013.56;6156933;23;20006;-87
2023/12/22 01:10:36;;;;;;;16.80;3.63;;;;;;;3.19;100.00;100199.41;6156785;23;20012;-87
2023/12/22 01:13:01;;;;;;;15.90;2.78;;;;;;;3.60;100.00;100267.38;6156367;23;20001;-86
2023/12/22 01:15:35;;;;;;;18.52;4.15;;;;;;;2.15;100.00;100027.88;6156517;23;20012;-86
2023/12/22 01:18:07;;;;;;;18.17;3.30;;;;;;;2.93;100.00;100164.78;6156837;23;20013;-86
2023/12/22 01:20:49;;;;;;;22.08;3.67;;;;;;;2.10;100.00;99999.22;6157180;23;20009;-88
2023/12/22 01:23:14;;;;;;;22.77;4.15;;;;;;;2.54;100.00;100050.84;6156635;23;20033;-88
2023/12/22 01:25:40;;;;;;;19.52;3.38;;;;;;;2.39;100.00;100026.88;6156747;23;20008;-86
2023/12/22 01:28:14;;;;;;;21.10;3.63;;;;;;;2.16;100.00;100015.06;6156305;23;20455;-87
2023/12/22 01:30:41;;;;;;;19.90;4.13;;;;;;;4.41;100.00;100355.75;6130357;23;20008;-86
2023/12/22 01:33:12;;;;;;;20.13;3.65;;;;;;;3.74;100.00;100254.03;6156820;23;20288;-87
2023/12/22 01:35:37;;;;;;;24.65;3.80;;;;;;;2.50;100.00;100062.09;6157041;23;20029;-86
2023/12/22 01:38:06;;;;;;;30.33;4.50;;;;;;;3.79;100.00;100264.84;6156415;23;20009;-86
2023/12/22 01:40:38;;;;;;;20.20;4.95;;;;;;;3.77;100.00;100273.47;6156558;23;20339;-86
2023/12/22 01:43:14;;;;;;;19.00;3.83;;;;;;;3.61;100.00;100250.31;6156221;23;20470;-87
2023/12/22 01:45:43;;;;;;;19.33;4.45;;;;;;;2.40;100.00;100066.75;6156112;23;20037;-87
2023/12/22 01:48:09;;;;;;;18.65;3.95;;;;;;;3.59;100.00;100273.38;6156025;23;20002;-86
2023/12/22 01:50:41;;;;;;;21.08;4.07;;;;;;;2.30;100.00;100052.72;6156016;23;20012;-87
2023/12/22 01:53:06;;;;;;;20.83;3.38;;;;;;;4.02;100.00;100333.63;6155760;23;20427;-86
2023/12/22 01:55:33;;;;;;;22.13;3.92;;;;;;;4.29;100.00;100382.69;6156138;23;20084;-87
2023/12/22 01:58:11;;;;;;;19.88;3.97;;;;;;;4.33;100.00;100388.53;6156366;23;20040;-87
2023/12/22 02:00:42;;;;;;;18.48;4.00;;;;;;;3.67;100.00;100273.06;6154805;23;20021;-86
2023/12/22 02:03:19;;;;;;;17.60;3.60;;;;;;;2.19;100.00;100048.06;6156171;23;20498;-87
2023/12/22 02:05:45;;;;;;;23.40;4.25;;;;;;;2.62;100.00;100121.91;6129688;23;19997;-86
2023/12/22 02:08:11;;;;;;;19.25;3.40;;;;;;;3.29;100.00;100224.47;6156314;23;20511;-85
2023/12/22 02:10:40;;;;;;;20.33;3.90;;;;;;;3.30;100.00;100233.78;6156471;23;20005;-87
2023/12/22 02:13:06;;;;;;;17.35;4.03;;;;;;;3.22;100.00;100217.13;6155771;23;20088;-85
2023/12/22 02:15:32;;;;;;;17.63;3.10;;;;;;;3.21;100.00;100212.94;6156031;23;20423;-84
2023/12/22 02:18:04;;;;;;;17.75;3.80;;;;;;;4.31;100.00;100374.97;6156026;23;20084;-87
2023/12/22 02:20:32;;;;;;;19.45;4.10;;;;;;;4.14;100.00;100349.34;6156079;23;20005;-86
2023/12/22 02:23:12;;;;;;;19.25;2.92;;;;;;;2.41;100.00;100076.03;6155621;23;20029;-86
2023/12/22 02:25:38;;;;;;;13.30;2.78;;;;;;;3.67;100.00;100278.16;6156189;23;20005;-86
2023/12/22 02:28:23;;;;;;;21.17;3.38;;;;;;;3.56;100.00;100263.31;6156172;23;20047;-87
2023/12/22 02:31:13;;;;;;;23.00;3.42;;;;;;;4.28;100.00;100375.94;6156145;23;20031;-86
2023/12/22 02:33:48;;;;;;;13.45;3.53;;;;;;;3.65;100.00;100275.69;6129843;23;20001;-86
2023/12/22 02:36:21;;;;;;;18.88;3.45;;;;;;;3.70;100.00;100281.41;6156296;23;20033;-86
2023/12/22 02:38:49;;;;;;;18.90;3.25;;;;;;;4.12;100.00;100351.94;6155816;23;20067;-87
2023/12/22 02:41:15;;;;;;;20.08;4.00;;;;;;;4.34;100.00;100382.50;6155260;23;20029;-86
2023/12/22 02:43:47;;;;;;;18.92;3.40;;;;;;;3.25;100.00;100200.00;6155814;23;20012;-87
2023/12/22 02:46:18;;;;;;;15.55;3.30;;;;;;;3.01;100.00;100148.28;6155876;23;20040;-86
2023/12/22 02:48:43;;;;;;;;;;;;;;;4.36;100.00;100367.94;6156120;23;20017;-84
2023/12/22 02:51:14;;;;;;;15.85;2.67;;;;;;;3.77;100.00;100248.78;6155558;23;19909;-85
2023/12/22 02:53:40;;;;;;;14.60;2.85;;;;;;;2.51;100.00;100051.81;6128544;23;20017;-85
2023/12/22 02:56:18;;;;;;;18.13;3.28;;;;;;;4.53;100.00;100351.84;6155859;23;20009;-84
2023/12/22 02:58:55;;;;;;;15.02;3.22;;;;;;;2.88;100.00;100070.66;6155601;23;20450;-85
2023/12/22 03:01:25;;;;;;;16.05;3.13;;;;;;;3.14;100.00;100090.72;6155618;23;20124;-84
2023/12/22 03:03:53;;;;;;;19.30;3.15;;;;;;;4.30;100.00;100269.34;6155313;23;20006;-83
2023/12/22 03:06:24;;;;;;;13.02;2.58;;;;;;;4.28;100.00;100257.53;6129267;23;20031;-85
2023/12/22 03:08:58;;;;;;;18.80;3.43;;;;;;;3.08;100.00;100062.13;6128911;23;20013;-86
2023/12/22 03:11:27;;;;;;;16.13;3.10;;;;;;;3.66;100.00;100166.72;6155795;23;20012;-85
2023/12/22 03:14:04;;;;;;;15.77;3.50;;;;;;;4.78;100.00;100337.00;6155529;23;20006;-86
2023/12/22 03:16:40;;;;;;;17.10;3.70;;;;;;;3.95;100.00;100208.81;6155521;23;20427;-86
2023/12/22 03:19:24;;;;;;;17.55;2.90;;;;;;;2.88;100.00;100042.59;6155137;23;20013;-84
2023/12/22 03:21:50;;;;;;;18.90;3.35;;;;;;;3.71;100.00;100188.56;6155754;23;20080;-86
2023/12/22 03:24:28;;;;;;;17.95;3.88;;;;;;;2.79;100.00;100053.19;6155755;23;20032;-86
2023/12/22 03:27:02;;;;;;;16.98;2.92;;;;;;;3.51;100.00;100175.88;6155354;23;20061;-86
2023/12/22 03:29:40;;;;;;;21.92;3.78;;;;;;;3.29;100.00;100140.25;6155268;23;20080;-85
2023/12/22 03:32:07;;;;;;;15.10;3.17;;;;;;;3.56;100.00;100176.50;6155713;23;20021;-85
2023/12/22 03:34:33;;;;;;;14.55;2.88;;;;;;;4.71;100.00;100352.69;6155662;23;20079;-84
2023/12/22 03:37:07;;;;;;;17.80;3.80;;;;;;;3.17;100.00;100118.66;6129110;23;20368;-86
2023/12/22 03:39:33;;;;;;;14.35;2.63;;;;;;;3.43;100.00;100134.53;6129264;23;20009;-87
2023/12/22 03:42:10;;;;;;;11.98;2.50;;;;;;;2.99;100.00;100070.19;6129479;23;20300;-87
2023/12/22 03:44:41;;;;;;;17.55;2.92;;;;;;;3.00;100.00;100054.81;6154048;23;20016;-87
2023/12/22 03:47:07;;;;;;;13.15;2.50;;;;;;;4.92;100.00;100366.22;6155833;23;19998;-87
2023/12/22 03:49:32;;;;;;;18.10;3.08;;;;;;;3.79;100.00;100175.47;6155404;23;20028;-85
2023/12/22 03:52:03;;;;;;;16.88;3.00;;;;;;;4.06;100.00;100213.44;6155108;23;20001;-86
2023/12/22 03:54:28;;;;;;;14.23;2.58;;;;;;;4.23;100.00;100227.09;6154744;23;20020;-86
2023/12/22 03:56:54;;;;;;;11.52;2.25;;;;;;;5.16;100.00;100375.31;6154864;23;20005;-86
2023/12/22 03:59:22;;;;;;;13.18;3.15;;;;;;;4.10;100.00;100213.22;6128910;23;20008;-86
2023/12/22 04:02:10;;;;;;;14.70;3.05;;;;;;;3.74;100.00;100146.78;6155542;23;20006;-87
2023/12/22 04:04:38;;;;;;;12.43;2.72;;;;;;;5.18;100.00;100370.94;6155328;23;20028;-86
2023/12/22 04:07:13;;;;;;;13.18;2.65;;;;;;;3.53;100.00;100105.16;6155619;23;20304;-86
2023/12/22 04:09:38;;;;;;;14.65;3.20;;;;;;;4.50;100.00;100259.91;6155439;23;20005;-87
2023/12/22 04:12:04;;;;;;;14.93;3.28;;;;;;;4.18;100.00;100212.84;6155080;23;20029;-86
2023/12/22 04:14:30;;;;;;;13.02;2.75;;;;;;;5.51;100.00;100416.31;6154591;23;20012;-87
2023/12/22 04:17:04;;;;;;;13.48;2.78;;;;;;;4.38;100.00;100224.72;6157224;23;20111;-86
2023/12/22 04:19:36;;;;;;;14.35;2.80;;;;;;;3.69;100.00;100115.50;6157385;23;20008;-87
2023/12/22 04:22:02;;;;;;;12.73;2.88;;;;;;;4.78;100.00;100288.41;6156897;23;20001;-87
2023/12/22 04:24:37;;;;;;;14.98;2.92;;;;;;;3.86;100.00;100138.53;6154146;23;20005;-86
2023/12/22 04:27:08;;;;;;;12.88;2.47;;;;;;;4.94;100.00;100316.66;6128336;23;20386;-86
2023/12/22 04:29:34;;;;;;;;;;;;;;;5.56;100.00;100433.09;6127878;23;20018;-87
2023/12/22 04:31:59;;;;;;;15.90;2.95;;;;;;;4.14;100.00;100184.06;6127754;23;19980;-87
2023/12/22 04:34:24;;;;;;;12.57;2.50;;;;;;;4.61;100.00;100258.50;6127618;23;20002;-86
2023/12/22 04:36:50;;;;;;;15.50;2.75;;;;;;;4.68;100.00;100251.38;6127487;23;20006;-86
2023/12/22 04:39:15;;;;;;;18.55;3.17;;;;;;;3.91;100.00;100145.97;6124606;23;20013;-86
2023/12/22 04:41:40;;;;;;;15.70;3.33;;;;;;;5.70;100.00;100429.84;6125049;23;20484;-85
2023/12/22 04:44:17;;;;;;;16.67;3.40;;;;;;;4.99;100.00;100309.56;6124821;23;20444;-86
2023/12/22 04:46:51;;;;;;;16.95;3.00;;;;;;;4.95;100.00;100308.06;6124703;23;20010;-86
2023/12/22 04:49:20;;;;;;;11.25;2.80;;;;;;;3.98;100.00;100158.41;6124778;23;20206;-87
2023/12/22 04:51:52;;;;;;;12.57;3.13;;;;;;;3.86;100.00;100127.50;6124575;23;20009;-86
2023/12/22 04:54:23;;;;;;;16.15;3.05;;;;;;;3.94;100.00;100138.19;6124675;23;20010;-84
2023/12/22 04:56:49;;;;;;;15.68;3.08;;;;;;;4.80;100.00;100291.72;6124657;23;20013;-85
2023/12/22 04:59:29;;;;;;;11.43;2.97;;;;;;;3.81;100.00;100129.44;6123992;23;20010;-86
2023/12/22 05:02:04;;;;;;;15.82;2.67;;;;;;;5.11;100.00;100343.97;6124874;23;20395;-88
2023/12/22 05:04:29;;;;;;;14.85;2.65;;;;;;;4.42;100.00;100214.25;6124682;23;20360;-85
2023/12/22 05:06:57;;;;;;;10.55;2.42;;;;;;;5.01;100.00;100322.28;6124546;23;20036;-85
2023/12/22 05:09:33;;;;;;;12.80;2.78;;;;;;;5.16;100.00;100335.19;6124654;23;20006;-85
2023/12/22 05:12:08;;;;;;;11.45;2.10;;;;;;;4.03;100.00;100176.06;6127134;23;20006;-87
2023/12/22 05:14:36;;;;;;;12.43;2.55;;;;;;;4.12;100.00;100164.59;6126867;23;20002;-87
2023/12/22 05:17:05;;;;;;;15.38;2.80;;;;;;;4.46;100.00;100209.84;6101217;23;20072;-87
2023/12/22 05:19:30;;;;;;;17.00;3.35;;;;;;;5.79;100.00;100420.91;6127042;23;20002;-87
2023/12/22 05:21:59;;;;;;;13.57;2.72;;;;;;;4.16;100.00;100150.78;6127433;23;20006;-85
2023/12/22 05:24:40;;;;;;;14.55;2.78;;;;;;;4.66;100.00;100232.72;6126542;23;20013;-85
2023/12/22 05:27:14;;;;;;;10.80;2.55;;;;;;;4.21;100.00;100159.88;6100282;23;20085;-85
2023/12/22 05:29:43;;;;;;;12.07;2.28;;;;;;;5.34;100.00;100328.34;6100676;23;20016;-85
2023/12/22 05:32:08;;;;;;;11.85;2.05;;;;;;;6.08;100.00;100420.28;6127033;23;20006;-86
2023/12/22 05:34:33;;;;;;;12.48;2.55;;;;;;;4.78;100.00;100233.88;6127033;23;20423;-85
2023/12/22 05:37:05;;;;;;;15.85;2.80;;;;;;;4.59;100.00;100203.22;6126676;23;20089;-85
2023/12/22 05:39:30;;;;;;;14.13;2.72;;;;;;;6.03;100.00;100414.59;6125466;23;20065;-86
2023/12/22 05:42:03;;;;;;;12.48;2.28;;;;;;;6.07;100.00;100428.91;6126382;23;20006;-85
2023/12/22 05:44:30;;;;;;;12.15;3.28;;;;;;;5.78;100.00;100358.56;6126806;23;20090;-86
2023/12/22 05:47:07;;;;;;;;;;;;;;;;;;;;;
2023/12/22 05:49:36;;;;;;;14.77;3.15;;;;;;;4.37;100.00;100142.09;6126524;23;20532;-85
2023/12/22 05:52:01;;;;;;;18.85;3.78;;;;;;;5.64;100.00;100353.34;6127001;23;20049;-87
2023/12/22 05:54:26;;;;;;;19.05;3.78;;;;;;;6.12;100.00;100428.69;6126628;23;20010;-85
2023/12/22 05:56:52;;;;;;;20.33;5.00;;;;;;;6.01;100.00;100393.34;6126504;23;20033;-85
2023/12/22 05:59:17;;;;;;;17.17;3.97;;;;;;;5.34;100.00;100297.63;6126458;23;20037;-85
2023/12/22 06:01:55;;;;;;;18.98;4.25;;;;;;;4.96;100.00;100224.47;6126769;23;20076;-85
2023/12/22 06:04:24;;;;;;;27.25;6.35;;;;;;;5.65;100.00;100319.13;6126581;23;20005;-84
2023/12/22 06:06:53;;;;;;;23.05;5.15;;;;;;;5.07;100.00;100210.22;6126825;23;20069;-86
2023/12/22 06:09:24;;;;;;;21.00;4.75;;;;;;;5.03;100.00;100185.72;6099796;23;20041;-85
2023/12/22 06:11:57;;;;;;;;;;;;;;;6.41;100.00;100412.63;6127112;23;20006;-85
2023/12/22 06:14:29;;;;;;;17.77;4.40;;;;;;;4.66;100.00;100109.16;6126540;23;19909;-84
2023/12/22 06:16:58;;;;;;;17.55;4.30;;;;;;;5.83;100.00;100330.19;6126651;23;20069;-85
2023/12/22 06:19:28;;;;;;;18.02;3.45;;;;;;;6.31;100.00;100409.72;6126291;23;20002;-86
2023/12/22 06:22:03;;;;;;;10.73;3.33;;;;;;;4.92;100.00;100203.34;6126362;23;20006;-86
2023/12/22 06:24:36;;;;;;;19.05;3.90;;;;;;;4.24;100.00;100110.38;6126220;23;20006;-87
2023/12/22 06:27:02;;;;;;;15.40;3.97;;;;;;;5.88;100.00;100377.69;6126633;23;20002;-85
2023/12/22 06:29:28;;;;;;;14.35;4.07;;;;;;;5.89;100.00;100389.59;6126702;23;20609;-84
2023/12/22 06:31:53;;;;;;;18.30;4.57;;;;;;;4.63;100.00;100180.91;6126251;23;20491;-84
2023/12/22 06:34:19;;;;;;;29.25;5.38;;;;;;;5.99;100.00;100419.03;6126109;23;20364;-84
2023/12/22 06:36:50;;;;;;;22.05;5.30;;;;;;;5.82;100.00;100379.78;6126515;23;20069;-83
2023/12/22 06:39:19;;;;;;;31.30;6.18;;;;;;;6.06;100.00;100417.00;6126381;23;20320;-86
2023/12/22 06:42:00;;;;;;;30.25;6.05;;;;;;;6.14;100.00;100421.72;6126674;23;20309;-86
2023/12/22 06:44:38;;;;;;;27.00;7.03;;;;;;;4.88;100.00;100209.50;6081533;23;20013;-85
2023/12/22 06:47:09;;;;;;;31.70;7.00;;;;;;;5.66;100.00;100341.28;6125953;23;20424;-85
2023/12/22 06:49:34;;;;;;;28.90;7.43;;;;;;;4.71;100.00;100171.09;6151487;23;20040;-84
2023/12/22 06:51:59;;;;;;;28.55;6.50;;;;;;;6.06;100.00;100377.72;6155647;23;20424;-83
2023/12/22 06:54:40;;;;;;;29.30;6.10;;;;;;;6.24;100.00;100404.97;6129602;23;20381;-84
2023/12/22 06:57:22;;;;;;;33.33;6.47;;;;;;;6.07;100.00;100384.50;6155874;23;20005;-84
2023/12/22 07:00:03;;;;;;;;;;;;;;;6.39;100.00;100419.56;6155822;23;20539;-84
2023/12/22 07:02:31;;;;;;;33.72;7.00;;;;;;;6.44;100.00;100416.75;6155874;23;19908;-84
2023/12/22 07:05:38;;;;;;;29.98;6.72;;;;;;;5.56;100.00;100269.19;6129373;23;20006;-85
2023/12/22 07:08:16;;;;;;;27.17;5.97;;;;;;;4.73;100.00;100119.00;6155106;23;20072;-87
2023/12/22 07:10:41;;;;;;;28.88;6.80;;;;;;;6.03;100.00;100322.31;6155832;23;20005;-85
2023/12/22 07:13:24;;;;;;;28.95;6.75;;;;;;;5.14;100.00;100191.09;6155617;23;20012;-84
2023/12/22 07:15:59;;;;;;;34.10;8.10;;;;;;;4.78;100.00;100124.69;6155370;23;20001;-84
2023/12/22 07:18:31;;;;;;;33.75;6.43;;;;;;;5.45;100.00;100233.06;6155500;23;20013;-87
2023/12/22 07:20:58;;;;;;;31.52;6.63;;;;;;;6.65;100.00;100423.31;6155198;23;20009;-87
2023/12/22 07:23:39;;;;;;;31.95;6.45;;;;;;;5.48;100.00;100248.25;6154553;23;20014;-84
2023/12/22 07:26:05;;;;;;;;;;;;;;;6.60;100.00;100410.75;6155886;23;20006;-85
2023/12/22 07:28:36;;;;;;;30.45;6.88;;;;;;;4.90;100.00;100129.19;6152642;23;20208;-83
2023/12/22 07:31:07;;;;;;;29.88;6.47;;;;;;;5.45;100.00;100226.22;6125557;23;20002;-87
2023/12/22 07:33:33;;;;;;;29.92;6.35;;;;;;;6.60;100.00;100399.66;6125862;23;20040;-83
2023/12/22 07:36:07;;;;;;;31.45;7.03;;;;;;;6.10;100.00;100307.44;6124391;23;20002;-85
2023/12/22 07:38:32;;;;;;;29.30;7.05;;;;;;;5.46;100.00;100196.31;6126188;23;20045;-84
2023/12/22 07:41:11;;;;;;;32.53;6.60;;;;;;;5.03;100.00;100136.25;6126558;23;20002;-86
2023/12/22 07:43:41;;;;;;;33.35;6.13;;;;;;;5.11;100.00;100145.22;6125744;23;20001;-88
2023/12/22 07:46:51;;;;;;;28.02;6.32;;;;;;;6.87;100.00;100422.97;6125978;23;20306;-83
2023/12/22 07:49:16;;;;;;;31.00;6.13;;;;;;;6.34;100.00;100326.66;6122723;23;20395;-85
2023/12/22 07:52:10;;;;;;;28.85;6.18;;;;;;;6.94;100.00;100410.66;6125246;23;20043;-82
2023/12/22 07:54:40;;;;;;;34.17;7.13;;;;;;;6.36;100.00;100304.31;6122715;23;20029;-85
2023/12/22 07:57:17;;;;;;;28.33;6.63;;;;;;;5.30;100.00;100131.44;6098397;23;20002;-85
2023/12/22 07:59:45;;;;;;;26.88;6.20;;;;;;;6.23;100.00;100270.00;6123429;23;20006;-88
2023/12/22 08:02:23;;;;;;;22.80;6.43;;;;;;;5.71;100.00;100190.75;6122559;23;20045;-86
2023/12/22 08:05:04;;;;;;;29.52;5.88;;;;;;;7.13;100.00;100412.13;6123382;23;20057;-86
2023/12/22 08:07:37;;;;;;;26.08;6.53;;;;;;;5.87;100.00;100198.41;6123517;23;20010;-87
2023/12/22 08:10:19;;;;;;;27.95;6.07;;;;;;;5.44;100.00;100127.25;6123121;23;20040;-86
2023/12/22 08:12:54;;;;;;;25.48;5.35;;;;;;;6.65;100.00;100319.88;6123270;23;20041;-87
2023/12/22 08:18:02;;;;;;;24.85;4.75;;;;;;;6.21;100.00;100259.00;6127352;23;20036;-86
2023/12/22 08:20:36;;;;;;;27.70;5.10;;;;;;;7.16;100.00;100393.97;6125788;23;20006;-85
2023/12/22 08:23:08;;;;;;;26.13;5.65;;;;;;;5.33;100.00;100100.56;6126439;23;20045;-89
2023/12/22 08:25:43;;;;;;;24.25;4.68;;;;;;;6.84;100.00;100318.75;6126157;23;20006;-86
2023/12/22 08:30:40;;;;;;;19.15;4.53;;;;;;;6.68;100.00;100299.16;6125687;23;20033;-86
2023/12/22 08:33:06;;;;;;;23.60;5.28;;;;;;;5.79;100.00;100132.22;6125957;23;20021;-87
2023/12/22 08:35:40;;;;;;;20.98;3.90;;;;;;;6.22;100.00;100197.38;6125996;23;20364;-85
2023/12/22 08:38:18;;;;;;;23.38;4.60;;;;;;;6.96;100.00;100313.84;6125663;23;20014;-86
2023/12/22 08:40:52;;;;;;;21.60;4.68;;;;;;;5.80;100.00;100109.97;6123883;23;20002;-87
2023/12/22 08:43:29;;;;;;;15.93;3.53;;;;;;;6.93;100.00;100291.75;6125476;23;20006;-86
2023/12/22 08:46:11;;;;;;;18.33;3.45;;;;;;;6.89;100.00;100273.16;6125417;23;20002;-86
2023/12/22 08:48:39;;;;;;;20.73;4.60;;;;;;;6.85;100.00;100263.94;6125698;23;20069;-86
2023/12/22 08:51:05;;;;;;;13.45;3.40;;;;;;;6.74;100.00;100244.94;6124233;23;20002;-86
2023/12/22 08:53:37;;;;;;;18.05;3.75;;;;;;;7.50;100.00;100358.69;6125921;23;20002;-87
2023/12/22 08:56:07;;;;;;;15.32;3.42;;;;;;;6.05;100.00;100102.63;6123850;23;20317;-87
2023/12/22 08:58:38;;;;;;;12.00;3.67;;;;;;;6.72;100.00;100209.13;6125312;23;20033;-87
2023/12/22 09:01:03;;;;;;;9.00;2.72;;;;;;;6.02;100.00;100111.31;6125597;23;20380;-87
2023/12/22 09:03:45;;;;;;;16.33;3.05;;;;;;;7.16;100.00;100272.47;6125401;23;20006;-86
2023/12/22 09:06:13;;;;;;;9.30;2.58;;;;;;;7.12;100.00;100276.97;6126009;23;20036;-85
2023/12/22 09:08:39;;;;;;;11.13;2.42;;;;;;;6.27;100.00;100117.63;6126628;23;20013;-84
2023/12/22 09:11:47;;;;;;;9.80;2.60;;;;;;;7.90;100.00;100385.47;6126819;23;20306;-85
2023/12/22 09:14:16;;;;;;;10.38;2.30;;;;;;;6.30;100.00;100123.44;6126457;23;20081;-85
2023/12/22 09:16:45;;;;;;;11.52;2.33;;;;;;;6.52;100.00;100168.38;6126907;23;20006;-84
2023/12/22 09:19:13;;;;;;;10.05;2.53;;;;;;;7.37;100.00;100278.91;6126869;23;20333;-87
2023/12/22 09:21:45;;;;;;;10.18;1.92;;;;;;;6.38;100.00;100129.84;6126915;23;20037;-84
2023/12/22 09:24:16;;;;;;;;;;;;;;;8.01;100.00;100384.84;6125895;23;20306;-85
2023/12/22 09:26:51;;;;;;;;;;;;;;;;;;;;;
2023/12/22 09:29:29;;;;;;;10.95;2.28;;;;;;;6.27;100.00;100104.81;6126383;23;20325;-86
2023/12/22 09:32:07;;;;;;;9.65;1.50;;;;;;;6.52;100.00;100152.97;6126667;23;20006;-87
2023/12/22 09:34:36;;;;;;;11.00;2.55;;;;;;;6.83;100.00;100187.97;6126581;23;20093;-87
2023/12/22 09:37:01;;;;;;;10.15;2.00;;;;;;;7.98;100.00;100361.88;6126740;23;20010;-85
2023/12/22 09:39:28;;;;;;;8.80;1.77;;;;;;;7.68;100.00;100320.81;6148836;23;20073;-85
2023/12/22 09:41:54;;;;;;;6.43;1.85;;;;;;;6.45;100.00;100082.44;6125823;23;20029;-86
2023/12/22 09:44:31;;;;;;;12.13;2.13;;;;;;;6.37;100.00;100087.16;6126629;23;20433;-84
2023/12/22 09:47:16;;;;;;;9.13;2.08;;;;;;;7.50;100.00;100271.34;6126680;23;20006;-84
2023/12/22 09:49:42;;;;;;;7.43;2.20;;;;;;;7.51;100.00;100261.91;6124861;23;20029;-83
2023/12/22 09:52:17;;;;;;;6.15;1.65;;;;;;;6.56;100.00;100106.53;6126049;23;20016;-84
2023/12/22 09:54:43;;;;;;;5.43;1.52;;;;;;;8.32;100.00;100368.38;6126777;23;20012;-84
2023/12/22 09:57:09;;;;;;;7.03;1.88;;;;;;;6.91;100.00;100142.16;6126804;23;20409;-86
2023/12/22 09:59:41;;;;;;;7.68;1.77;;;;;;;8.40;100.00;100350.78;6126649;23;20006;-84
2023/12/22 10:02:07;;;;;;;9.43;1.77;;;;;;;8.44;100.00;100359.13;6125191;23;20006;-83
2023/12/22 10:04:33;;;;;;;5.35;1.35;;;;;;;7.29;100.00;100154.47;6126850;23;20085;-81
2023/12/22 10:07:04;;;;;;;7.70;1.83;;;;;;;7.94;100.00;100258.38;6127167;23;20149;-83
2023/12/22 10:09:29;;;;;;;9.60;2.10;;;;;;;8.21;100.00;100320.16;6125946;23;20010;-84
2023/12/22 10:11:56;;;;;;;8.93;1.95;;;;;;;7.57;100.00;100203.28;6126817;23;20011;-84
2023/12/22 10:14:38;;;;;;;8.50;2.47;;;;;;;6.94;100.00;100088.06;6126291;23;20010;-85
2023/12/22 10:17:06;;;;;;;;;;;;;;;8.75;100.00;100378.63;6126802;23;20099;-78
2023/12/22 10:19:34;;;;;;;10.90;2.70;;;;;;;8.69;100.00;100366.97;6126658;23;19960;-80
2023/12/22 10:22:00;;;;;;;6.78;2.00;;;;;;;8.67;100.00;100347.41;6126432;23;20499;-80
2023/12/22 10:24:38;;;;;;;7.63;2.38;;;;;;;8.86;100.00;100376.22;6126078;23;20006;-81
2023/12/22 10:27:04;;;;;;;8.00;1.90;;;;;;;8.87;100.00;100375.31;6126415;23;20048;-81
2023/12/22 10:29:32;;;;;;;7.75;1.75;;;;;;;8.64;100.00;100350.97;6126576;23;20444;-82
2023/12/22 10:32:00;;;;;;;7.70;1.60;;;;;;;8.83;100.00;100387.53;6126169;23;20064;-79
2023/12/22 10:34:25;;;;;;;8.48;1.80;;;;;;;8.84;100.00;100367.75;6124960;23;20088;-81
2023/12/22 10:36:51;;;;;;;6.53;1.98;;;;;;;8.55;100.00;100325.81;6126264;23;20014;-83
2023/12/22 10:39:20;;;;;;;6.63;1.58;;;;;;;8.87;100.00;100380.44;6126310;23;20080;-81
2023/12/22 10:41:46;;;;;;;6.82;1.90;;;;;;;8.29;100.00;100271.66;6126396;23;20002;-84
2023/12/22 10:44:12;;;;;;;6.28;1.98;;;;;;;8.90;100.00;100359.66;6125979;23;20010;-85
2023/12/22 10:46:37;;;;;;;6.40;1.75;;;;;;;8.93;100.00;100366.34;6126560;23;20033;-83
2023/12/22 10:49:04;;;;;;;6.47;1.35;;;;;;;8.95;100.00;100379.94;6126443;23;20009;-81
2023/12/22 10:51:32;;;;;;;7.35;1.70;;;;;;;8.67;100.00;100322.50;6126265;23;20302;-83
2023/12/22 10:53:57;;;;;;;8.57;1.55;;;;;;;8.81;100.00;100344.78;6126160;23;20006;-80
2023/12/22 10:56:23;;;;;;;7.40;1.92;;;;;;;8.73;100.00;100323.84;6126351;23;20010;-83
2023/12/22 10:58:48;;;;;;;5.72;1.65;;;;;;;8.70;100.00;100319.72;6125988;23;20080;-83
2023/12/22 11:01:14;;;;;;;6.28;2.22;;;;;;;9.05;100.00;100373.31;6126059;23;20021;-82
2023/12/22 11:03:44;;;;;;;9.27;1.80;;;;;;;9.07;100.00;100387.75;6125864;23;20425;-84
2023/12/22 11:06:12;;;;;;;7.63;1.70;;;;;;;9.10;100.00;100372.09;6126019;23;20009;-84
2023/12/22 11:08:39;;;;;;;6.30;1.60;;;;;;;9.14;100.00;100383.00;6125642;23;20010;-85
2023/12/22 11:11:26;;;;;;;6.75;1.80;;;;;;;9.17;100.00;100382.81;6125891;23;20002;-84
2023/12/22 11:13:53;;;;;;;8.25;1.92;;;;;;;9.00;100.00;100336.72;6125748;23;20436;-82
2023/12/22 11:16:21;;;;;;;6.25;1.65;;;;;;;8.88;100.00;100317.72;6125993;23;20005;-83
2023/12/22 11:18:48;;;;;;;8.95;2.25;;;;;;;9.17;100.00;100349.34;6125522;23;20060;-85
2023/12/22 11:21:14;;;;;;;8.25;2.35;;;;;;;9.24;100.00;100357.47;6125764;23;20037;-85
2023/12/22 11:23:40;;;;;;;7.45;1.90;;;;;;;9.25;100.00;100354.00;6125622;23;20002;-82
2023/12/22 11:26:07;;;;;;;5.97;1.90;;;;;;;9.24;100.00;100360.88;6125570;23;20310;-83
2023/12/22 11:28:34;;;;;;;14.10;2.55;;;;;;;9.15;100.00;100346.88;6126103;23;20002;-84
2023/12/22 11:31:01;;;;;;;7.20;2.10;;;;;;;8.73;100.00;100268.03;6125775;23;19998;-83
2023/12/22 11:33:28;;;;;;;7.05;2.13;;;;;;;9.17;100.00;100332.13;6125808;23;20013;-84
2023/12/22 11:35:56;;;;;;;7.65;2.28;;;;;;;9.04;100.00;100307.25;6125715;23;20021;-81
2023/12/22 11:38:21;;;;;;;7.88;2.65;;;;;;;9.26;100.00;100348.75;6125676;23;20010;-81
2023/12/22 11:40:51;;;;;;;10.23;2.00;;;;;;;8.88;100.00;100302.28;6126105;23;20013;-84
2023/12/22 11:43:17;;;;;;;7.72;1.98;;;;;;;9.30;100.00;100341.63;6124738;23;20006;-82
2023/12/22 11:45:43;;;;;;;8.38;1.77;;;;;;;9.22;100.00;100326.66;6123750;23;20502;-84
2023/12/22 11:48:10;;;;;;;8.02;2.00;;;;;;;9.04;100.00;100296.94;6148600;23;20006;-81